sensor_id;sensor_type;location;lat;lon;timestamp;pressure;altitude;pressure_sealevel;temperature;humidity
75699;BME280;64313;51.018;13.742;2022-10-31T00:00:15;100119.06;;;12.45;75.87
75699;BME280;64313;51.018;13.742;2022-10-31T00:02:41;100117.81;;;12.41;76.12
75699;BME280;64313;51.018;13.742;2022-10-31T00:05:06;100121.50;;;12.40;75.86
75699;BME280;64313;51.018;13.742;2022-10-31T00:07:32;100114.69;;;12.37;75.79
75699;BME280;64313;51.018;13.742;2022-10-31T00:09:57;100121.91;;;12.37;75.79
75699;BME280;64313;51.018;13.742;2022-10-31T00:12:22;100127.28;;;12.30;76.17
75699;BME280;64313;51.018;13.742;2022-10-31T00:14:48;100131.38;;;12.26;76.32
75699;BME280;64313;51.018;13.742;2022-10-31T00:17:13;100124.56;;;12.23;76.21
75699;BME280;64313;51.018;13.742;2022-10-31T00:19:38;100126.81;;;12.20;76.30
75699;BME280;64313;51.018;13.742;2022-10-31T00:22:04;100120.00;;;12.17;76.11
75699;BME280;64313;51.018;13.742;2022-10-31T00:24:29;100127.19;;;12.17;76.48
75699;BME280;64313;51.018;13.742;2022-10-31T00:26:54;100124.50;;;12.17;76.40
75699;BME280;64313;51.018;13.742;2022-10-31T00:29:20;100132.78;;;12.15;76.35
75699;BME280;64313;51.018;13.742;2022-10-31T00:31:46;100133.19;;;12.12;76.30
75699;BME280;64313;51.018;13.742;2022-10-31T00:34:11;100136.03;;;12.10;76.47
75699;BME280;64313;51.018;13.742;2022-10-31T00:36:36;100137.69;;;12.11;76.11
75699;BME280;64313;51.018;13.742;2022-10-31T00:39:02;100129.88;;;12.10;76.30
75699;BME280;64313;51.018;13.742;2022-10-31T00:41:27;100137.44;;;12.06;76.42
75699;BME280;64313;51.018;13.742;2022-10-31T00:43:54;100133.94;;;12.06;76.38
75699;BME280;64313;51.018;13.742;2022-10-31T00:46:19;100128.78;;;12.04;76.45
75699;BME280;64313;51.018;13.742;2022-10-31T00:48:44;100132.50;;;12.03;76.09
75699;BME280;64313;51.018;13.742;2022-10-31T00:51:10;100126.31;;;12.03;76.56
75699;BME280;64313;51.018;13.742;2022-10-31T00:53:36;100132.09;;;12.00;76.75
75699;BME280;64313;51.018;13.742;2022-10-31T00:56:01;100140.31;;;11.98;76.14
75699;BME280;64313;51.018;13.742;2022-10-31T00:58:27;100137.22;;;11.95;76.38
75699;BME280;64313;51.018;13.742;2022-10-31T01:00:53;100127.72;;;11.92;76.54
75699;BME280;64313;51.018;13.742;2022-10-31T01:03:32;100135.53;;;11.94;76.35
75699;BME280;64313;51.018;13.742;2022-10-31T01:06:10;100141.94;;;11.93;76.48
75699;BME280;64313;51.018;13.742;2022-10-31T01:08:37;100128.72;;;11.91;76.49
75699;BME280;64313;51.018;13.742;2022-10-31T01:11:08;100129.94;;;11.88;76.48
75699;BME280;64313;51.018;13.742;2022-10-31T01:13:35;100138.19;;;11.87;76.26
75699;BME280;64313;51.018;13.742;2022-10-31T01:16:03;100147.19;;;11.86;76.52
75699;BME280;64313;51.018;13.742;2022-10-31T01:18:29;100141.69;;;11.87;76.40
75699;BME280;64313;51.018;13.742;2022-10-31T01:21:07;100144.53;;;11.86;76.27
75699;BME280;64313;51.018;13.742;2022-10-31T01:23:33;100137.28;;;11.80;76.43
75699;BME280;64313;51.018;13.742;2022-10-31T01:26:10;100138.28;;;11.79;76.47
75699;BME280;64313;51.018;13.742;2022-10-31T01:28:52;100137.88;;;11.75;76.55
75699;BME280;64313;51.018;13.742;2022-10-31T01:31:19;100139.72;;;11.75;76.71
75699;BME280;64313;51.018;13.742;2022-10-31T01:33:45;100139.09;;;11.73;76.52
75699;BME280;64313;51.018;13.742;2022-10-31T01:36:15;100133.91;;;11.71;77.05
75699;BME280;64313;51.018;13.742;2022-10-31T01:38:41;100141.13;;;11.70;77.11
75699;BME280;64313;51.018;13.742;2022-10-31T01:41:08;100143.38;;;11.67;76.66
75699;BME280;64313;51.018;13.742;2022-10-31T01:46:11;100139.44;;;11.63;76.79
75699;BME280;64313;51.018;13.742;2022-10-31T01:48:37;100144.38;;;11.59;77.09
75699;BME280;64313;51.018;13.742;2022-10-31T01:51:04;100146.19;;;11.59;76.85
75699;BME280;64313;51.018;13.742;2022-10-31T01:53:31;100144.72;;;11.56;76.77
75699;BME280;64313;51.018;13.742;2022-10-31T01:55:58;100136.91;;;11.55;76.94
75699;BME280;64313;51.018;13.742;2022-10-31T01:58:25;100137.91;;;11.54;76.80
75699;BME280;64313;51.018;13.742;2022-10-31T02:00:57;100136.47;;;11.51;76.80
75699;BME280;64313;51.018;13.742;2022-10-31T02:03:25;100145.34;;;11.52;77.02
75699;BME280;64313;51.018;13.742;2022-10-31T02:05:53;100150.06;;;11.50;76.44
75699;BME280;64313;51.018;13.742;2022-10-31T02:08:31;100146.56;;;11.49;76.56
75699;BME280;64313;51.018;13.742;2022-10-31T02:10:59;100150.63;;;11.45;76.80
75699;BME280;64313;51.018;13.742;2022-10-31T02:13:25;100146.94;;;11.46;76.64
75699;BME280;64313;51.018;13.742;2022-10-31T02:15:55;100146.94;;;11.46;76.67
75699;BME280;64313;51.018;13.742;2022-10-31T02:18:22;100151.28;;;11.47;76.79
75699;BME280;64313;51.018;13.742;2022-10-31T02:23:56;100147.50;;;11.41;77.07
75699;BME280;64313;51.018;13.742;2022-10-31T02:26:58;100147.72;;;11.40;77.10
75699;BME280;64313;51.018;13.742;2022-10-31T02:32:34;100149.94;;;11.36;77.08
75699;BME280;64313;51.018;13.742;2022-10-31T02:35:28;100153.25;;;11.38;77.05
75699;BME280;64313;51.018;13.742;2022-10-31T02:40:31;100153.81;;;11.34;77.02
75699;BME280;64313;51.018;13.742;2022-10-31T02:43:27;100155.44;;;11.28;77.15
75699;BME280;64313;51.018;13.742;2022-10-31T02:46:01;100163.66;;;11.26;77.00
75699;BME280;64313;51.018;13.742;2022-10-31T02:48:32;100158.06;;;11.21;77.27
75699;BME280;64313;51.018;13.742;2022-10-31T02:51:02;100162.56;;;11.21;77.30
75699;BME280;64313;51.018;13.742;2022-10-31T02:53:35;100157.44;;;11.19;77.29
75699;BME280;64313;51.018;13.742;2022-10-31T02:56:21;100160.28;;;11.18;77.14
75699;BME280;64313;51.018;13.742;2022-10-31T02:58:51;100178.19;;;11.17;77.16
75699;BME280;64313;51.018;13.742;2022-10-31T03:04:38;100168.53;;;11.16;77.16
75699;BME280;64313;51.018;13.742;2022-10-31T03:12:41;100179.78;;;11.12;76.99
75699;BME280;64313;51.018;13.742;2022-10-31T03:15:22;100185.72;;;11.07;77.52
75699;BME280;64313;51.018;13.742;2022-10-31T03:18:11;100184.91;;;11.07;77.23
75699;BME280;64313;51.018;13.742;2022-10-31T03:20:43;100183.22;;;11.05;77.30
75699;BME280;64313;51.018;13.742;2022-10-31T03:23:14;100183.22;;;11.05;77.47
75699;BME280;64313;51.018;13.742;2022-10-31T03:25:41;100177.88;;;11.05;77.19
75699;BME280;64313;51.018;13.742;2022-10-31T03:28:10;100183.59;;;11.02;77.34
75699;BME280;64313;51.018;13.742;2022-10-31T03:30:38;100180.28;;;11.00;77.37
75699;BME280;64313;51.018;13.742;2022-10-31T03:33:10;100184.00;;;10.99;77.24
75699;BME280;64313;51.018;13.742;2022-10-31T03:35:42;100184.38;;;10.96;77.30
75699;BME280;64313;51.018;13.742;2022-10-31T03:38:11;100183.75;;;10.94;76.88
75699;BME280;64313;51.018;13.742;2022-10-31T03:40:40;100180.66;;;10.97;77.16
75699;BME280;64313;51.018;13.742;2022-10-31T03:43:10;100185.00;;;10.98;76.87
75699;BME280;64313;51.018;13.742;2022-10-31T03:45:41;100185.00;;;10.98;77.08
75699;BME280;64313;51.018;13.742;2022-10-31T03:48:08;100184.38;;;10.96;76.99
75699;BME280;64313;51.018;13.742;2022-10-31T03:50:42;100184.13;;;10.91;76.99
75699;BME280;64313;51.018;13.742;2022-10-31T03:53:16;100192.50;;;10.88;77.00
75699;BME280;64313;51.018;13.742;2022-10-31T03:55:52;100192.72;;;10.87;76.94
75699;BME280;64313;51.018;13.742;2022-10-31T03:58:28;100186.53;;;10.86;76.77
75699;BME280;64313;51.018;13.742;2022-10-31T04:00:55;100195.75;;;10.83;77.02
75699;BME280;64313;51.018;13.742;2022-10-31T04:03:26;100196.13;;;10.80;76.86
75699;BME280;64313;51.018;13.742;2022-10-31T04:05:57;100196.50;;;10.77;76.84
75699;BME280;64313;51.018;13.742;2022-10-31T04:08:27;100195.84;;;10.75;77.04
75699;BME280;64313;51.018;13.742;2022-10-31T04:10:56;100194.41;;;10.73;77.02
75699;BME280;64313;51.018;13.742;2022-10-31T04:13:26;100200.78;;;10.72;76.56
75699;BME280;64313;51.018;13.742;2022-10-31T04:16:04;100202.63;;;10.71;77.02
75699;BME280;64313;51.018;13.742;2022-10-31T04:18:30;100199.94;;;10.71;77.08
75699;BME280;64313;51.018;13.742;2022-10-31T04:21:05;100201.59;;;10.72;76.92
75699;BME280;64313;51.018;13.742;2022-10-31T04:23:31;100202.63;;;10.71;77.09
75699;BME280;64313;51.018;13.742;2022-10-31T04:25:57;100202.63;;;10.71;76.94
75699;BME280;64313;51.018;13.742;2022-10-31T04:28:22;100199.09;;;10.71;76.83
75699;BME280;64313;51.018;13.742;2022-10-31T04:30:48;100198.47;;;10.69;76.84
75699;BME280;64313;51.018;13.742;2022-10-31T04:33:14;100194.91;;;10.61;76.77
75699;BME280;64313;51.018;13.742;2022-10-31T04:35:40;100201.88;;;10.63;77.22
75699;BME280;64313;51.018;13.742;2022-10-31T04:38:06;100208.44;;;10.60;77.16
75699;BME280;64313;51.018;13.742;2022-10-31T04:40:31;100201.63;;;10.57;77.06
75699;BME280;64313;51.018;13.742;2022-10-31T04:43:16;100198.50;;;10.54;77.10
75699;BME280;64313;51.018;13.742;2022-10-31T04:45:43;100214.72;;;10.52;77.24
75699;BME280;64313;51.018;13.742;2022-10-31T04:48:09;100200.53;;;10.52;77.32
75699;BME280;64313;51.018;13.742;2022-10-31T04:50:37;100210.56;;;10.50;77.40
75699;BME280;64313;51.018;13.742;2022-10-31T04:53:02;100214.44;;;10.47;77.48
75699;BME280;64313;51.018;13.742;2022-10-31T04:55:35;100219.97;;;10.46;77.28
75699;BME280;64313;51.018;13.742;2022-10-31T04:58:16;100211.31;;;10.44;77.49
75699;BME280;64313;51.018;13.742;2022-10-31T05:00:42;100210.47;;;10.43;77.76
75699;BME280;64313;51.018;13.742;2022-10-31T05:03:08;100206.34;;;10.40;77.46
75699;BME280;64313;51.018;13.742;2022-10-31T05:05:33;100203.66;;;10.40;77.97
75699;BME280;64313;51.018;13.742;2022-10-31T05:08:02;100205.50;;;10.40;77.81
75699;BME280;64313;51.018;13.742;2022-10-31T05:10:30;100207.53;;;10.38;77.79
75699;BME280;64313;51.018;13.742;2022-10-31T05:13:00;100211.63;;;10.34;77.63
75699;BME280;64313;51.018;13.742;2022-10-31T05:15:44;100212.59;;;10.33;77.72
75699;BME280;64313;51.018;13.742;2022-10-31T05:18:41;100213.81;;;10.30;77.81
75699;BME280;64313;51.018;13.742;2022-10-31T05:21:25;100207.63;;;10.30;77.62
75699;BME280;64313;51.018;13.742;2022-10-31T05:23:53;100216.47;;;10.30;77.55
75699;BME280;64313;51.018;13.742;2022-10-31T05:26:21;100207.63;;;10.30;77.52
75699;BME280;64313;51.018;13.742;2022-10-31T05:28:46;100210.66;;;10.27;77.57
75699;BME280;64313;51.018;13.742;2022-10-31T05:31:12;100212.03;;;10.23;77.17
75699;BME280;64313;51.018;13.742;2022-10-31T05:33:37;100215.72;;;10.22;77.61
75699;BME280;64313;51.018;13.742;2022-10-31T05:36:28;100210.75;;;10.18;77.78
75699;BME280;64313;51.018;13.742;2022-10-31T05:38:59;100208.91;;;10.19;77.99
75699;BME280;64313;51.018;13.742;2022-10-31T05:41:29;100221.44;;;10.18;77.63
75699;BME280;64313;51.018;13.742;2022-10-31T05:44:03;100219.59;;;10.19;77.49
75699;BME280;64313;51.018;13.742;2022-10-31T05:46:31;100219.59;;;10.19;77.60
75699;BME280;64313;51.018;13.742;2022-10-31T05:49:35;100216.47;;;10.15;77.87
75699;BME280;64313;51.018;13.742;2022-10-31T05:52:33;100222.00;;;10.14;77.81
75699;BME280;64313;51.018;13.742;2022-10-31T05:55:10;100222.16;;;10.12;77.71
75699;BME280;64313;51.018;13.742;2022-10-31T05:57:37;100222.97;;;10.13;77.81
75699;BME280;64313;51.018;13.742;2022-10-31T06:00:04;100233.88;;;10.11;77.67
75699;BME280;64313;51.018;13.742;2022-10-31T06:02:33;100233.06;;;10.11;77.96
75699;BME280;64313;51.018;13.742;2022-10-31T06:05:22;100233.59;;;10.06;77.88
75699;BME280;64313;51.018;13.742;2022-10-31T06:07:48;100234.59;;;10.05;77.83
75699;BME280;64313;51.018;13.742;2022-10-31T06:10:13;100239.94;;;10.05;77.63
75699;BME280;64313;51.018;13.742;2022-10-31T06:12:39;100239.94;;;10.05;77.59
75699;BME280;64313;51.018;13.742;2022-10-31T06:15:19;100244.81;;;10.02;77.87
75699;BME280;64313;51.018;13.742;2022-10-31T06:17:45;100244.81;;;10.02;77.77
75699;BME280;64313;51.018;13.742;2022-10-31T06:20:37;100241.50;;;10.00;78.34
75699;BME280;64313;51.018;13.742;2022-10-31T06:23:04;100240.03;;;9.97;78.17
75699;BME280;64313;51.018;13.742;2022-10-31T06:25:33;100248.69;;;9.99;78.09
75699;BME280;64313;51.018;13.742;2022-10-31T06:27:58;100257.34;;;10.01;77.86
75699;BME280;64313;51.018;13.742;2022-10-31T06:30:32;100256.31;;;10.02;78.52
75699;BME280;64313;51.018;13.742;2022-10-31T06:33:02;100251.19;;;10.01;78.37
75699;BME280;64313;51.018;13.742;2022-10-31T06:35:29;100252.00;;;10.01;78.45
75699;BME280;64313;51.018;13.742;2022-10-31T06:37:55;100257.53;;;10.00;78.50
75699;BME280;64313;51.018;13.742;2022-10-31T06:40:36;100265.00;;;10.04;78.45
75699;BME280;64313;51.018;13.742;2022-10-31T06:43:16;100266.63;;;10.05;78.62
75699;BME280;64313;51.018;13.742;2022-10-31T06:45:42;100275.50;;;10.06;78.59
75699;BME280;64313;51.018;13.742;2022-10-31T06:48:32;100268.31;;;10.06;78.76
75699;BME280;64313;51.018;13.742;2022-10-31T06:51:16;100276.13;;;10.08;78.69
75699;BME280;64313;51.018;13.742;2022-10-31T06:53:41;100279.44;;;10.10;78.52
75699;BME280;64313;51.018;13.742;2022-10-31T06:56:09;100281.13;;;10.11;78.32
75699;BME280;64313;51.018;13.742;2022-10-31T06:58:40;100284.44;;;10.13;78.65
75699;BME280;64313;51.018;13.742;2022-10-31T07:01:07;100280.59;;;10.15;78.53
75699;BME280;64313;51.018;13.742;2022-10-31T07:03:32;100288.22;;;10.18;78.52
75699;BME280;64313;51.018;13.742;2022-10-31T07:05:58;100287.22;;;10.19;78.47
75699;BME280;64313;51.018;13.742;2022-10-31T07:08:24;100291.56;;;10.21;78.59
75699;BME280;64313;51.018;13.742;2022-10-31T07:10:52;100297.34;;;10.24;78.47
75699;BME280;64313;51.018;13.742;2022-10-31T07:13:18;100295.34;;;10.26;78.29
75699;BME280;64313;51.018;13.742;2022-10-31T07:15:49;100297.50;;;10.31;78.07
75699;BME280;64313;51.018;13.742;2022-10-31T07:18:15;100298.13;;;10.33;78.37
75699;BME280;64313;51.018;13.742;2022-10-31T07:20:41;100296.09;;;10.35;78.13
75699;BME280;64313;51.018;13.742;2022-10-31T07:23:09;100301.06;;;10.38;78.23
75699;BME280;64313;51.018;13.742;2022-10-31T07:25:35;100303.41;;;10.41;78.50
75699;BME280;64313;51.018;13.742;2022-10-31T07:28:04;100301.34;;;10.43;78.21
75699;BME280;64313;51.018;13.742;2022-10-31T07:30:29;100308.00;;;10.47;78.11
75699;BME280;64313;51.018;13.742;2022-10-31T07:32:55;100307.63;;;10.50;77.80
75699;BME280;64313;51.018;13.742;2022-10-31T07:35:24;100297.41;;;10.54;78.28
75699;BME280;64313;51.018;13.742;2022-10-31T07:37:56;100298.69;;;10.58;78.05
75699;BME280;64313;51.018;13.742;2022-10-31T07:40:23;100306.97;;;10.63;77.93
75699;BME280;64313;51.018;13.742;2022-10-31T07:42:51;100306.78;;;10.65;78.02
75699;BME280;64313;51.018;13.742;2022-10-31T07:45:35;100304.56;;;10.68;77.92
75699;BME280;64313;51.018;13.742;2022-10-31T07:48:19;100310.84;;;10.75;77.78
75699;BME280;64313;51.018;13.742;2022-10-31T07:51:10;100307.63;;;10.80;78.22
75699;BME280;64313;51.018;13.742;2022-10-31T07:54:06;100313.22;;;10.85;78.21
75699;BME280;64313;51.018;13.742;2022-10-31T07:56:31;100309.81;;;10.91;77.94
75699;BME280;64313;51.018;13.742;2022-10-31T07:58:57;100312.78;;;10.96;78.06
75699;BME280;64313;51.018;13.742;2022-10-31T08:01:22;100314.84;;;11.01;77.91
75699;BME280;64313;51.018;13.742;2022-10-31T08:04:06;100309.59;;;11.08;78.29
75699;BME280;64313;51.018;13.742;2022-10-31T08:06:50;100309.69;;;11.14;78.38
75699;BME280;64313;51.018;13.742;2022-10-31T08:09:25;100314.09;;;11.22;78.37
75699;BME280;64313;51.018;13.742;2022-10-31T08:11:52;100307.16;;;11.27;78.53
75699;BME280;64313;51.018;13.742;2022-10-31T08:14:18;100311.56;;;11.35;78.65
75699;BME280;64313;51.018;13.742;2022-10-31T08:16:43;100310.78;;;11.41;78.04
75699;BME280;64313;51.018;13.742;2022-10-31T08:19:10;100311.91;;;11.47;77.88
75699;BME280;64313;51.018;13.742;2022-10-31T08:21:37;100310.31;;;11.53;78.04
75699;BME280;64313;51.018;13.742;2022-10-31T08:24:04;100309.53;;;11.59;77.88
75699;BME280;64313;51.018;13.742;2022-10-31T08:26:30;100308.56;;;11.66;77.95
75699;BME280;64313;51.018;13.742;2022-10-31T08:28:57;100312.34;;;11.72;78.06
75699;BME280;64313;51.018;13.742;2022-10-31T08:31:27;100306.22;;;11.78;77.65
75699;BME280;64313;51.018;13.742;2022-10-31T08:34:11;100305.09;;;11.87;78.10
75699;BME280;64313;51.018;13.742;2022-10-31T08:36:55;100299.59;;;11.96;77.91
75699;BME280;64313;51.018;13.742;2022-10-31T08:39:27;100298.63;;;12.03;77.37
75699;BME280;64313;51.018;13.742;2022-10-31T08:41:52;100300.31;;;12.11;77.38
75699;BME280;64313;51.018;13.742;2022-10-31T08:44:18;100296.66;;;12.19;77.47
75699;BME280;64313;51.018;13.742;2022-10-31T08:46:43;100297.16;;;12.29;77.40
75699;BME280;64313;51.018;13.742;2022-10-31T08:49:10;100296.16;;;12.37;76.80
75699;BME280;64313;51.018;13.742;2022-10-31T08:51:36;100303.44;;;12.43;76.42
75699;BME280;64313;51.018;13.742;2022-10-31T08:54:01;100309.03;;;12.48;76.71
75699;BME280;64313;51.018;13.742;2022-10-31T08:56:47;100300.19;;;12.54;76.36
75699;BME280;64313;51.018;13.742;2022-10-31T08:59:28;100310.16;;;12.60;76.18
75699;BME280;64313;51.018;13.742;2022-10-31T09:02:13;100303.97;;;12.66;76.23
75699;BME280;64313;51.018;13.742;2022-10-31T09:04:38;100304.22;;;12.71;76.15
75699;BME280;64313;51.018;13.742;2022-10-31T09:07:04;100304.25;;;12.78;76.38
75699;BME280;64313;51.018;13.742;2022-10-31T09:09:29;100301.41;;;12.86;75.86
75699;BME280;64313;51.018;13.742;2022-10-31T09:11:56;100297.72;;;12.94;75.51
75699;BME280;64313;51.018;13.742;2022-10-31T09:14:40;100302.91;;;13.02;74.91
75699;BME280;64313;51.018;13.742;2022-10-31T09:17:28;100302.53;;;13.12;75.16
75699;BME280;64313;51.018;13.742;2022-10-31T09:20:14;100306.88;;;13.19;74.69
75699;BME280;64313;51.018;13.742;2022-10-31T09:22:39;100313.97;;;13.27;74.26
75699;BME280;64313;51.018;13.742;2022-10-31T09:25:05;100319.13;;;13.35;74.34
75699;BME280;64313;51.018;13.742;2022-10-31T09:27:30;100313.78;;;13.42;74.36
75699;BME280;64313;51.018;13.742;2022-10-31T09:29:56;100308.44;;;13.49;73.46
75699;BME280;64313;51.018;13.742;2022-10-31T09:32:22;100314.44;;;13.57;73.45
75699;BME280;64313;51.018;13.742;2022-10-31T09:34:47;100313.63;;;13.63;73.93
75699;BME280;64313;51.018;13.742;2022-10-31T09:37:17;100316.31;;;13.70;72.72
75699;BME280;64313;51.018;13.742;2022-10-31T09:39:43;100319.03;;;13.77;73.23
75699;BME280;64313;51.018;13.742;2022-10-31T09:50:37;100309.94;;;14.11;73.00
75699;BME280;64313;51.018;13.742;2022-10-31T09:55:53;100298.56;;;14.29;72.61
75699;BME280;64313;51.018;13.742;2022-10-31T09:58:25;100298.72;;;14.41;72.83
75699;BME280;64313;51.018;13.742;2022-10-31T10:00:53;100300.16;;;14.50;71.15
75699;BME280;64313;51.018;13.742;2022-10-31T10:03:42;100298.94;;;14.59;71.59
75699;BME280;64313;51.018;13.742;2022-10-31T10:06:34;100295.19;;;14.67;71.60
75699;BME280;64313;51.018;13.742;2022-10-31T10:09:30;100292.88;;;14.77;71.41
75699;BME280;64313;51.018;13.742;2022-10-31T10:17:22;100290.94;;;14.98;71.02
75699;BME280;64313;51.018;13.742;2022-10-31T10:28:03;100288.06;;;15.31;69.29
75699;BME280;64313;51.018;13.742;2022-10-31T10:33:29;100276.97;;;15.46;69.65
75699;BME280;64313;51.018;13.742;2022-10-31T10:36:03;100278.78;;;15.52;69.94
75699;BME280;64313;51.018;13.742;2022-10-31T10:38:36;100277.94;;;15.58;68.98
75699;BME280;64313;51.018;13.742;2022-10-31T10:41:11;100274.16;;;15.66;68.40
75699;BME280;64313;51.018;13.742;2022-10-31T10:43:39;100271.44;;;15.72;68.05
75699;BME280;64313;51.018;13.742;2022-10-31T10:57:22;100261.97;;;16.13;66.65
75699;BME280;64313;51.018;13.742;2022-10-31T10:59:52;100252.59;;;16.16;67.96
75699;BME280;64313;51.018;13.742;2022-10-31T11:02:26;100255.66;;;16.19;67.49
75699;BME280;64313;51.018;13.742;2022-10-31T11:04:57;100250.41;;;16.25;67.46
75699;BME280;64313;51.018;13.742;2022-10-31T11:07:23;100254.78;;;16.26;67.92
75699;BME280;64313;51.018;13.742;2022-10-31T11:09:49;100248.69;;;16.30;67.67
75699;BME280;64313;51.018;13.742;2022-10-31T11:12:21;100248.03;;;16.35;67.80
75699;BME280;64313;51.018;13.742;2022-10-31T11:14:52;100247.38;;;16.39;66.46
75699;BME280;64313;51.018;13.742;2022-10-31T11:17:34;100241.31;;;16.44;67.25
75699;BME280;64313;51.018;13.742;2022-10-31T11:22:38;100230.81;;;16.54;67.66
75699;BME280;64313;51.018;13.742;2022-10-31T11:27:46;100220.75;;;16.61;67.41
75699;BME280;64313;51.018;13.742;2022-10-31T11:30:13;100218.19;;;16.66;66.72
75699;BME280;64313;51.018;13.742;2022-10-31T11:32:49;100221.84;;;16.72;67.64
75699;BME280;64313;51.018;13.742;2022-10-31T11:35:18;100220.16;;;16.78;66.88
75699;BME280;64313;51.018;13.742;2022-10-31T11:37:47;100210.91;;;16.85;66.60
75699;BME280;64313;51.018;13.742;2022-10-31T11:40:18;100212.47;;;16.93;66.52
75699;BME280;64313;51.018;13.742;2022-10-31T11:42:44;100204.50;;;16.98;66.46
75699;BME280;64313;51.018;13.742;2022-10-31T11:45:33;100204.19;;;17.06;65.85
75699;BME280;64313;51.018;13.742;2022-10-31T11:48:01;100206.56;;;17.15;66.47
75699;BME280;64313;51.018;13.742;2022-10-31T11:50:33;100210.22;;;17.20;66.57
75699;BME280;64313;51.018;13.742;2022-10-31T11:53:00;100205.41;;;17.22;66.91
75699;BME280;64313;51.018;13.742;2022-10-31T11:55:39;100199.06;;;17.28;66.25
75699;BME280;64313;51.018;13.742;2022-10-31T11:58:23;100197.34;;;17.34;65.45
75699;BME280;64313;51.018;13.742;2022-10-31T12:00:51;100192.06;;;17.39;65.70
75699;BME280;64313;51.018;13.742;2022-10-31T12:05:47;100189.63;;;17.49;64.22
75699;BME280;64313;51.018;13.742;2022-10-31T12:08:13;100188.06;;;17.53;64.48
75699;BME280;64313;51.018;13.742;2022-10-31T12:13:37;100176.09;;;17.61;64.57
75699;BME280;64313;51.018;13.742;2022-10-31T12:16:17;100173.75;;;17.65;64.59
75699;BME280;64313;51.018;13.742;2022-10-31T12:19:00;100179.50;;;17.68;65.20
75699;BME280;64313;51.018;13.742;2022-10-31T12:21:40;100167.41;;;17.71;64.27
75699;BME280;64313;51.018;13.742;2022-10-31T12:32:53;100159.09;;;17.84;64.50
75699;BME280;64313;51.018;13.742;2022-10-31T12:35:51;100155.91;;;17.87;64.93
75699;BME280;64313;51.018;13.742;2022-10-31T12:38:43;100153.81;;;17.89;64.83
75699;BME280;64313;51.018;13.742;2022-10-31T12:41:19;100154.38;;;17.91;64.32
75699;BME280;64313;51.018;13.742;2022-10-31T12:43:56;100151.78;;;17.97;64.00
75699;BME280;64313;51.018;13.742;2022-10-31T12:46:29;100145.06;;;17.99;63.68
75699;BME280;64313;51.018;13.742;2022-10-31T12:49:33;100142.50;;;18.04;64.92
75699;BME280;64313;51.018;13.742;2022-10-31T13:00:01;100127.13;;;18.22;63.82
75699;BME280;64313;51.018;13.742;2022-10-31T13:05:32;100123.50;;;18.28;64.23
75699;BME280;64313;51.018;13.742;2022-10-31T13:08:15;100125.13;;;18.29;64.05
75699;BME280;64313;51.018;13.742;2022-10-31T13:10:52;100124.09;;;18.30;62.94
75699;BME280;64313;51.018;13.742;2022-10-31T13:16:03;100122.53;;;18.34;62.35
75699;BME280;64313;51.018;13.742;2022-10-31T13:18:44;100110.66;;;18.35;62.59
75699;BME280;64313;51.018;13.742;2022-10-31T13:21:19;100111.47;;;18.35;63.67
75699;BME280;64313;51.018;13.742;2022-10-31T13:23:48;100106.88;;;18.36;62.74
75699;BME280;64313;51.018;13.742;2022-10-31T13:26:24;100105.81;;;18.37;62.97
75699;BME280;64313;51.018;13.742;2022-10-31T13:29:09;100104.75;;;18.38;63.18
75699;BME280;64313;51.018;13.742;2022-10-31T13:31:40;100103.94;;;18.37;62.81
75699;BME280;64313;51.018;13.742;2022-10-31T13:34:28;100098.53;;;18.37;62.86
75699;BME280;64313;51.018;13.742;2022-10-31T13:37:01;100099.34;;;18.38;61.88
75699;BME280;64313;51.018;13.742;2022-10-31T13:39:34;100103.94;;;18.37;62.80
75699;BME280;64313;51.018;13.742;2022-10-31T13:42:21;100102.84;;;18.38;62.76
75699;BME280;64313;51.018;13.742;2022-10-31T13:44:48;100100.41;;;18.37;61.87
75699;BME280;64313;51.018;13.742;2022-10-31T13:47:23;100098.53;;;18.37;61.91
75699;BME280;64313;51.018;13.742;2022-10-31T13:49:49;100095.22;;;18.35;61.04
75699;BME280;64313;51.018;13.742;2022-10-31T13:52:23;100092.53;;;18.35;61.17
75699;BME280;64313;51.018;13.742;2022-10-31T13:54:51;100089.00;;;18.35;62.64
75699;BME280;64313;51.018;13.742;2022-10-31T13:57:41;100081.91;;;18.34;61.71
75699;BME280;64313;51.018;13.742;2022-10-31T14:02:48;100088.63;;;18.31;63.42
75699;BME280;64313;51.018;13.742;2022-10-31T14:07:53;100080.41;;;18.26;61.75
75699;BME280;64313;51.018;13.742;2022-10-31T14:13:04;100070.09;;;18.23;62.58
75699;BME280;64313;51.018;13.742;2022-10-31T14:15:30;100068.47;;;18.22;61.94
75699;BME280;64313;51.018;13.742;2022-10-31T14:18:04;100059.75;;;18.20;63.00
75699;BME280;64313;51.018;13.742;2022-10-31T14:20:41;100061.88;;;18.18;62.52
75699;BME280;64313;51.018;13.742;2022-10-31T14:23:34;100063.19;;;18.15;62.04
75699;BME280;64313;51.018;13.742;2022-10-31T14:28:48;100059.28;;;18.11;63.63
75699;BME280;64313;51.018;13.742;2022-10-31T14:31:36;100050.63;;;18.09;62.38
75699;BME280;64313;51.018;13.742;2022-10-31T14:34:17;100052.75;;;18.07;62.86
75699;BME280;64313;51.018;13.742;2022-10-31T14:45:16;100042.75;;;17.96;64.00
75699;BME280;64313;51.018;13.742;2022-10-31T14:50:57;100049.13;;;17.90;64.24
75699;BME280;64313;51.018;13.742;2022-10-31T14:53:26;100041.75;;;17.85;64.14
75699;BME280;64313;51.018;13.742;2022-10-31T14:55:54;100043.03;;;17.83;64.77
75699;BME280;64313;51.018;13.742;2022-10-31T14:58:34;100037.25;;;17.79;65.49